Freeport, The Bahamas
Current Conditions -  °F | °C
As of 9:00 PM on Tuesday 27 Jan 2015 (Local Time) from MYGF Reporting Station
Few Clouds Few Clouds  
Wind Chill: 64°   Ceiling: Unl
Heat Index: 64°   Visibility: 6mi
Dew Point: 52°   Wind: 3mph
Humidity: 64%   Direction: 260°W
Pressure: 29.97"   Gusts: NA
Location:  26.54°N, 78.64°W
Report Text: MYGF 280100Z 26003KT 9999 FEW025 18/11 A2997
Loading
Personal Weather Stations






























Interactive Weather Map New forecast layout! Learn more

10-Day Weather Forecast

Advertisements
Track Severe Weather on mobile